Terminal Aerodrome Forecast
Issued by NWS

Home | Current Version | Previous Version | Text Only | Print | Product List | Glossary On
Versions: 1 2 3 4 5 6 7 8 9 10 11 12 13 14 15 16 17 18
000
FTUS41 KBTV 250522
TAFPBG
TAF
KPBG 250522Z 2506/2606 36004KT 1/4SM FG VV002
      TEMPO 2507/2511 1/2SM FG VV005
     FM251100 13005KT 3SM BR BKN015
     FM251300 16009KT P6SM BKN020
     FM251600 16015G25KT P6SM BKN025
     FM252100 18014G20KT 3SM +RA BR OVC020
     FM260100 25010KT 4SM -SHRA BR OVC020=

USA.gov is the U.S. government's official web portal to all federal, state and local government web resources and services.